sensor_id;sensor_type;location;lat;lon;timestamp;pressure;altitude;pressure_sealevel;temperature;humidity
70254;BME280;57649;42.968;1.608;2023-03-04T00:01:35;97833.91;;;4.01;91.06
70254;BME280;57649;42.968;1.608;2023-03-04T00:04:01;97830.53;;;3.99;92.07
70254;BME280;57649;42.968;1.608;2023-03-04T00:06:26;97826.69;;;4.03;92.10
70254;BME280;57649;42.968;1.608;2023-03-04T00:08:52;97815.09;;;4.04;92.63
70254;BME280;57649;42.968;1.608;2023-03-04T00:11:17;97819.69;;;4.02;92.37
70254;BME280;57649;42.968;1.608;2023-03-04T00:13:43;97821.75;;;4.10;92.87
70254;BME280;57649;42.968;1.608;2023-03-04T00:16:08;97826.19;;;4.10;93.01
70254;BME280;57649;42.968;1.608;2023-03-04T00:18:33;97818.72;;;4.03;93.37
70254;BME280;57649;42.968;1.608;2023-03-04T00:20:59;97819.94;;;3.99;92.83
70254;BME280;57649;42.968;1.608;2023-03-04T00:23:24;97830.53;;;3.99;93.06
70254;BME280;57649;42.968;1.608;2023-03-04T00:25:50;97820.53;;;4.03;93.28
70254;BME280;57649;42.968;1.608;2023-03-04T00:28:15;97820.66;;;4.01;94.22
70254;BME280;57649;42.968;1.608;2023-03-04T00:30:40;97830.13;;;3.93;95.30
70254;BME280;57649;42.968;1.608;2023-03-04T00:33:06;97823.41;;;4.00;94.63
70254;BME280;57649;42.968;1.608;2023-03-04T00:35:31;97817.63;;;3.95;94.38
70254;BME280;57649;42.968;1.608;2023-03-04T00:37:57;97819.78;;;4.01;93.81
70254;BME280;57649;42.968;1.608;2023-03-04T00:40:22;97817.28;;;3.99;94.20
70254;BME280;57649;42.968;1.608;2023-03-04T00:42:47;97826.69;;;4.03;94.28
70254;BME280;57649;42.968;1.608;2023-03-04T00:45:13;97814.75;;;3.98;93.17
70254;BME280;57649;42.968;1.608;2023-03-04T00:47:38;97826.06;;;4.00;92.85
70254;BME280;57649;42.968;1.608;2023-03-04T00:50:04;97825.69;;;4.04;92.56
70254;BME280;57649;42.968;1.608;2023-03-04T00:52:29;97822.09;;;4.05;92.16
70254;BME280;57649;42.968;1.608;2023-03-04T00:54:55;97810.06;;;4.01;91.98
70254;BME280;57649;42.968;1.608;2023-03-04T00:57:20;97821.97;;;3.96;93.12
70254;BME280;57649;42.968;1.608;2023-03-04T00:59:45;97825.56;;;3.95;93.32
70254;BME280;57649;42.968;1.608;2023-03-04T01:02:11;97831.25;;;4.01;93.90
70254;BME280;57649;42.968;1.608;2023-03-04T01:04:37;97823.75;;;3.95;93.53
70254;BME280;57649;42.968;1.608;2023-03-04T01:07:02;97819.06;;;3.99;92.77
70254;BME280;57649;42.968;1.608;2023-03-04T01:09:28;97821.59;;;4.00;94.90
70254;BME280;57649;42.968;1.608;2023-03-04T01:11:53;97819.94;;;3.99;95.36
70254;BME280;57649;42.968;1.608;2023-03-04T01:14:19;97826.50;;;3.94;96.94
70254;BME280;57649;42.968;1.608;2023-03-04T01:16:44;97820.38;;;3.93;96.57
70254;BME280;57649;42.968;1.608;2023-03-04T01:19:10;97815.56;;;3.87;96.59
70254;BME280;57649;42.968;1.608;2023-03-04T01:21:35;97820.34;;;3.82;97.27
70254;BME280;57649;42.968;1.608;2023-03-04T01:24:01;97808.31;;;3.78;96.95
70254;BME280;57649;42.968;1.608;2023-03-04T01:26:26;97812.19;;;3.85;96.57
70254;BME280;57649;42.968;1.608;2023-03-04T01:28:52;97808.34;;;3.89;96.27
70254;BME280;57649;42.968;1.608;2023-03-04T01:31:17;97806.81;;;3.98;95.46
70254;BME280;57649;42.968;1.608;2023-03-04T01:33:42;97805.19;;;3.84;95.88
70254;BME280;57649;42.968;1.608;2023-03-04T01:36:08;97803.03;;;3.89;96.19
70254;BME280;57649;42.968;1.608;2023-03-04T01:38:33;97793.16;;;3.80;96.68
70254;BME280;57649;42.968;1.608;2023-03-04T01:40:59;97803.16;;;3.88;96.06
70254;BME280;57649;42.968;1.608;2023-03-04T01:43:27;97799.06;;;3.83;96.78
70254;BME280;57649;42.968;1.608;2023-03-04T01:45:53;97793.66;;;3.85;96.40
70254;BME280;57649;42.968;1.608;2023-03-04T01:48:28;97798.13;;;3.96;96.19
70254;BME280;57649;42.968;1.608;2023-03-04T01:50:56;97793.06;;;3.93;95.36
70254;BME280;57649;42.968;1.608;2023-03-04T01:53:25;97784.97;;;3.83;95.21
70254;BME280;57649;42.968;1.608;2023-03-04T01:55:53;97784.97;;;3.83;95.75
70254;BME280;57649;42.968;1.608;2023-03-04T01:58:19;97775.81;;;3.76;95.02
70254;BME280;57649;42.968;1.608;2023-03-04T02:00:45;97774.06;;;3.63;97.08
70254;BME280;57649;42.968;1.608;2023-03-04T02:03:13;97775.19;;;3.72;97.25
70254;BME280;57649;42.968;1.608;2023-03-04T02:05:44;97772.19;;;3.77;97.36
70254;BME280;57649;42.968;1.608;2023-03-04T02:08:11;97774.38;;;3.83;96.85
70254;BME280;57649;42.968;1.608;2023-03-04T02:10:39;97766.28;;;3.73;96.79
70254;BME280;57649;42.968;1.608;2023-03-04T02:13:06;97767.50;;;3.80;97.25
70254;BME280;57649;42.968;1.608;2023-03-04T02:15:31;97754.13;;;3.82;96.50
70254;BME280;57649;42.968;1.608;2023-03-04T02:17:57;97763.78;;;3.83;95.81
70254;BME280;57649;42.968;1.608;2023-03-04T02:20:40;97762.81;;;3.84;95.23
70254;BME280;57649;42.968;1.608;2023-03-04T02:28:19;97754.53;;;3.89;93.53
70254;BME280;57649;42.968;1.608;2023-03-04T02:30:45;97762.47;;;3.77;95.80
70254;BME280;57649;42.968;1.608;2023-03-04T02:33:16;97756.16;;;3.67;96.29
70254;BME280;57649;42.968;1.608;2023-03-04T02:35:43;97749.03;;;3.67;94.86
70254;BME280;57649;42.968;1.608;2023-03-04T02:38:10;97749.88;;;3.68;94.27
70254;BME280;57649;42.968;1.608;2023-03-04T02:40:36;97752.16;;;3.61;93.81
70254;BME280;57649;42.968;1.608;2023-03-04T02:43:03;97747.38;;;3.66;93.76
70254;BME280;57649;42.968;1.608;2023-03-04T02:45:39;97744.72;;;3.66;96.81
70254;BME280;57649;42.968;1.608;2023-03-04T02:48:05;97748.94;;;3.69;96.07
70254;BME280;57649;42.968;1.608;2023-03-04T02:50:35;97750.38;;;3.73;96.52
70254;BME280;57649;42.968;1.608;2023-03-04T02:53:02;97745.94;;;3.74;96.56
70254;BME280;57649;42.968;1.608;2023-03-04T02:55:27;97739.78;;;3.73;96.75
70254;BME280;57649;42.968;1.608;2023-03-04T02:57:53;97739.44;;;3.66;96.84
70254;BME280;57649;42.968;1.608;2023-03-04T03:00:19;97734.50;;;3.73;97.12
70254;BME280;57649;42.968;1.608;2023-03-04T03:02:44;97730.75;;;3.64;96.57
70254;BME280;57649;42.968;1.608;2023-03-04T03:05:10;97741.09;;;3.67;96.27
70254;BME280;57649;42.968;1.608;2023-03-04T03:07:36;97728.97;;;3.65;95.14
70254;BME280;57649;42.968;1.608;2023-03-04T03:10:02;97722.56;;;3.67;95.33
70254;BME280;57649;42.968;1.608;2023-03-04T03:12:28;97723.56;;;3.78;94.92
70254;BME280;57649;42.968;1.608;2023-03-04T03:14:53;97732.22;;;3.69;95.14
70254;BME280;57649;42.968;1.608;2023-03-04T03:17:18;97719.47;;;3.74;94.22
70254;BME280;57649;42.968;1.608;2023-03-04T03:19:44;97729.19;;;3.73;94.57
70254;BME280;57649;42.968;1.608;2023-03-04T03:22:09;97728.38;;;3.73;93.27
70254;BME280;57649;42.968;1.608;2023-03-04T03:24:35;97725.72;;;3.73;93.38
70254;BME280;57649;42.968;1.608;2023-03-04T03:27:00;97715.84;;;3.75;94.62
70254;BME280;57649;42.968;1.608;2023-03-04T03:29:25;97734.88;;;3.80;94.37
70254;BME280;57649;42.968;1.608;2023-03-04T03:31:51;97729.59;;;3.80;93.16
70254;BME280;57649;42.968;1.608;2023-03-04T03:34:16;97733.44;;;3.76;93.03
70254;BME280;57649;42.968;1.608;2023-03-04T03:36:42;97729.91;;;3.75;92.13
70254;BME280;57649;42.968;1.608;2023-03-04T03:39:07;97738.25;;;3.82;91.66
70254;BME280;57649;42.968;1.608;2023-03-04T03:41:32;97736.69;;;3.79;92.11
70254;BME280;57649;42.968;1.608;2023-03-04T03:43:58;97731.88;;;3.84;93.13
70254;BME280;57649;42.968;1.608;2023-03-04T03:46:23;97735.88;;;3.90;93.66
70254;BME280;57649;42.968;1.608;2023-03-04T03:48:48;97726.72;;;3.83;93.75
70254;BME280;57649;42.968;1.608;2023-03-04T03:51:14;97715.72;;;3.76;94.30
70254;BME280;57649;42.968;1.608;2023-03-04T03:53:39;97742.09;;;3.78;94.83
70254;BME280;57649;42.968;1.608;2023-03-04T03:56:05;97731.84;;;3.73;95.16
70254;BME280;57649;42.968;1.608;2023-03-04T03:58:30;97731.00;;;3.73;94.24
70254;BME280;57649;42.968;1.608;2023-03-04T04:00:56;97724.28;;;3.80;93.87
70254;BME280;57649;42.968;1.608;2023-03-04T04:03:21;97726.56;;;3.73;94.28
70254;BME280;57649;42.968;1.608;2023-03-04T04:05:47;97728.13;;;3.76;94.53
70254;BME280;57649;42.968;1.608;2023-03-04T04:08:14;97733.19;;;3.79;94.46
70254;BME280;57649;42.968;1.608;2023-03-04T04:10:40;97730.31;;;3.82;93.71
70254;BME280;57649;42.968;1.608;2023-03-04T04:13:05;97734.03;;;3.79;94.90
70254;BME280;57649;42.968;1.608;2023-03-04T04:15:31;97738.63;;;3.77;93.29
70254;BME280;57649;42.968;1.608;2023-03-04T04:17:56;97732.84;;;3.83;93.34
70254;BME280;57649;42.968;1.608;2023-03-04T04:20:21;97727.53;;;3.83;93.95
70254;BME280;57649;42.968;1.608;2023-03-04T04:22:47;97723.44;;;3.79;95.15
70254;BME280;57649;42.968;1.608;2023-03-04T04:25:12;97732.66;;;3.62;96.62
70254;BME280;57649;42.968;1.608;2023-03-04T04:27:37;97731.81;;;3.62;96.42
70254;BME280;57649;42.968;1.608;2023-03-04T04:30:04;97731.84;;;3.73;96.47
70254;BME280;57649;42.968;1.608;2023-03-04T04:32:30;97739.91;;;3.72;96.42
70254;BME280;57649;42.968;1.608;2023-03-04T04:34:55;97733.66;;;3.73;96.49
70254;BME280;57649;42.968;1.608;2023-03-04T04:37:21;97743.78;;;3.79;95.96
70254;BME280;57649;42.968;1.608;2023-03-04T04:39:46;97728.97;;;3.76;95.29
70254;BME280;57649;42.968;1.608;2023-03-04T04:42:11;97728.22;;;3.63;94.71
70254;BME280;57649;42.968;1.608;2023-03-04T04:44:37;97728.47;;;3.60;94.41
70254;BME280;57649;42.968;1.608;2023-03-04T04:47:04;97728.13;;;3.76;94.62
70254;BME280;57649;42.968;1.608;2023-03-04T04:49:30;97727.66;;;3.82;95.58
70254;BME280;57649;42.968;1.608;2023-03-04T04:51:56;97709.94;;;3.71;94.99
70254;BME280;57649;42.968;1.608;2023-03-04T04:54:21;97726.06;;;3.68;95.23
70254;BME280;57649;42.968;1.608;2023-03-04T04:56:47;97726.56;;;3.73;93.66
70254;BME280;57649;42.968;1.608;2023-03-04T04:59:12;97728.59;;;3.70;93.81
70254;BME280;57649;42.968;1.608;2023-03-04T05:01:38;97720.91;;;3.66;94.99
70254;BME280;57649;42.968;1.608;2023-03-04T05:04:04;97727.75;;;3.69;94.92
70254;BME280;57649;42.968;1.608;2023-03-04T05:06:29;97729.31;;;3.72;93.91
70254;BME280;57649;42.968;1.608;2023-03-04T05:08:55;97719.09;;;3.67;93.28
70254;BME280;57649;42.968;1.608;2023-03-04T05:11:20;97724.16;;;3.70;93.38
70254;BME280;57649;42.968;1.608;2023-03-04T05:13:47;97733.31;;;3.77;93.31
70254;BME280;57649;42.968;1.608;2023-03-04T05:16:14;97727.78;;;3.80;93.51
70254;BME280;57649;42.968;1.608;2023-03-04T05:18:40;97733.09;;;3.92;94.10
70254;BME280;57649;42.968;1.608;2023-03-04T05:21:05;97722.34;;;3.82;94.17
70254;BME280;57649;42.968;1.608;2023-03-04T05:23:37;97730.06;;;3.74;95.36
70254;BME280;57649;42.968;1.608;2023-03-04T05:26:04;97735.09;;;3.77;95.27
70254;BME280;57649;42.968;1.608;2023-03-04T05:28:30;97726.66;;;3.72;95.24
70254;BME280;57649;42.968;1.608;2023-03-04T05:30:56;97733.66;;;3.73;95.37
70254;BME280;57649;42.968;1.608;2023-03-04T05:33:21;97731.63;;;3.76;94.46
70254;BME280;57649;42.968;1.608;2023-03-04T05:35:47;97738.84;;;3.74;94.59
70254;BME280;57649;42.968;1.608;2023-03-04T05:38:15;97731.50;;;3.66;94.38
70254;BME280;57649;42.968;1.608;2023-03-04T05:40:42;97729.06;;;3.63;94.71
70254;BME280;57649;42.968;1.608;2023-03-04T05:43:08;97739.47;;;3.78;94.21
70254;BME280;57649;42.968;1.608;2023-03-04T05:45:33;97729.91;;;3.75;93.95
70254;BME280;57649;42.968;1.608;2023-03-04T05:47:59;97726.91;;;3.69;94.16
70254;BME280;57649;42.968;1.608;2023-03-04T05:50:25;97745.94;;;3.74;93.61
70254;BME280;57649;42.968;1.608;2023-03-04T05:52:51;97741.81;;;3.70;94.32
70254;BME280;57649;42.968;1.608;2023-03-04T05:55:16;97747.38;;;3.66;93.23
70254;BME280;57649;42.968;1.608;2023-03-04T05:57:42;97745.19;;;3.60;92.99
70254;BME280;57649;42.968;1.608;2023-03-04T06:00:09;97749.03;;;3.67;91.75
70254;BME280;57649;42.968;1.608;2023-03-04T06:02:36;97747.22;;;3.68;93.33
70254;BME280;57649;42.968;1.608;2023-03-04T06:05:02;97751.47;;;3.71;93.39
70254;BME280;57649;42.968;1.608;2023-03-04T06:07:28;97752.91;;;3.75;92.59
70254;BME280;57649;42.968;1.608;2023-03-04T06:09:53;97753.41;;;3.80;91.72
70254;BME280;57649;42.968;1.608;2023-03-04T06:12:19;97753.81;;;3.87;91.77
70254;BME280;57649;42.968;1.608;2023-03-04T06:14:44;97760.53;;;3.79;92.44
70254;BME280;57649;42.968;1.608;2023-03-04T06:17:10;97764.72;;;3.82;92.57
70254;BME280;57649;42.968;1.608;2023-03-04T06:19:35;97765.53;;;3.71;93.53
70254;BME280;57649;42.968;1.608;2023-03-04T06:22:02;97762.97;;;3.58;94.50
70254;BME280;57649;42.968;1.608;2023-03-04T06:24:28;97773.47;;;3.60;94.65
70254;BME280;57649;42.968;1.608;2023-03-04T06:26:53;97770.59;;;3.63;94.82
70254;BME280;57649;42.968;1.608;2023-03-04T06:29:19;97772.25;;;3.64;94.35
70254;BME280;57649;42.968;1.608;2023-03-04T06:31:45;97768.41;;;3.68;94.97
70254;BME280;57649;42.968;1.608;2023-03-04T06:34:10;97779.38;;;3.63;95.56
70254;BME280;57649;42.968;1.608;2023-03-04T06:36:35;97789.84;;;3.65;96.07
70254;BME280;57649;42.968;1.608;2023-03-04T06:39:03;97786.13;;;3.67;96.48
70254;BME280;57649;42.968;1.608;2023-03-04T06:41:28;97787.66;;;3.59;96.44
70254;BME280;57649;42.968;1.608;2023-03-04T06:43:54;97788.84;;;3.55;96.94
70254;BME280;57649;42.968;1.608;2023-03-04T06:46:20;97799.53;;;3.53;96.48
70254;BME280;57649;42.968;1.608;2023-03-04T06:48:45;97793.06;;;3.57;97.27
70254;BME280;57649;42.968;1.608;2023-03-04T06:51:11;97803.59;;;3.70;96.56
70254;BME280;57649;42.968;1.608;2023-03-04T06:53:37;97808.47;;;3.52;94.96
70254;BME280;57649;42.968;1.608;2023-03-04T06:56:04;97803.66;;;3.57;95.41
70254;BME280;57649;42.968;1.608;2023-03-04T06:58:30;97812.97;;;3.63;95.14
70254;BME280;57649;42.968;1.608;2023-03-04T07:00:55;97816.66;;;3.60;94.70
70254;BME280;57649;42.968;1.608;2023-03-04T07:03:21;97817.75;;;3.58;94.17
70254;BME280;57649;42.968;1.608;2023-03-04T07:05:47;97810.66;;;3.70;92.11
70254;BME280;57649;42.968;1.608;2023-03-04T07:08:13;97809.00;;;3.69;90.90
70254;BME280;57649;42.968;1.608;2023-03-04T07:10:39;97811.75;;;3.67;90.45
70254;BME280;57649;42.968;1.608;2023-03-04T07:13:04;97812.16;;;3.74;90.08
70254;BME280;57649;42.968;1.608;2023-03-04T07:15:30;97818.06;;;3.77;90.07
70254;BME280;57649;42.968;1.608;2023-03-04T07:17:55;97811.19;;;3.75;90.29
70254;BME280;57649;42.968;1.608;2023-03-04T07:20:21;97821.28;;;3.81;89.49
70254;BME280;57649;42.968;1.608;2023-03-04T07:22:47;97820.56;;;3.79;89.13
70254;BME280;57649;42.968;1.608;2023-03-04T07:25:12;97823.63;;;3.85;87.13
70254;BME280;57649;42.968;1.608;2023-03-04T07:27:37;97826.16;;;3.87;85.99
70254;BME280;57649;42.968;1.608;2023-03-04T07:30:05;97825.06;;;3.90;86.19
70254;BME280;57649;42.968;1.608;2023-03-04T07:32:31;97829.53;;;3.89;85.76
70254;BME280;57649;42.968;1.608;2023-03-04T07:34:58;97823.53;;;3.98;84.63
70254;BME280;57649;42.968;1.608;2023-03-04T07:37:24;97830.75;;;3.96;85.09
70254;BME280;57649;42.968;1.608;2023-03-04T07:39:49;97835.47;;;4.04;84.83
70254;BME280;57649;42.968;1.608;2023-03-04T07:42:14;97825.69;;;4.04;84.91
70254;BME280;57649;42.968;1.608;2023-03-04T07:44:40;97843.81;;;4.11;84.11
70254;BME280;57649;42.968;1.608;2023-03-04T07:47:05;97834.66;;;4.15;82.65
70254;BME280;57649;42.968;1.608;2023-03-04T07:49:30;97825.97;;;4.01;82.85
70254;BME280;57649;42.968;1.608;2023-03-04T07:51:56;97838.38;;;4.12;82.80
70254;BME280;57649;42.968;1.608;2023-03-04T07:54:21;97845.03;;;4.18;82.16
70254;BME280;57649;42.968;1.608;2023-03-04T07:56:47;97849.47;;;4.17;82.15
70254;BME280;57649;42.968;1.608;2023-03-04T07:59:12;97852.69;;;4.10;80.99
70254;BME280;57649;42.968;1.608;2023-03-04T08:01:37;97849.59;;;4.16;81.66
70254;BME280;57649;42.968;1.608;2023-03-04T08:04:05;97856.59;;;4.28;81.73
70254;BME280;57649;42.968;1.608;2023-03-04T08:06:32;97861.16;;;4.26;81.63
70254;BME280;57649;42.968;1.608;2023-03-04T08:09:01;97856.59;;;4.28;81.38
70254;BME280;57649;42.968;1.608;2023-03-04T08:11:28;97864.03;;;4.23;81.62
70254;BME280;57649;42.968;1.608;2023-03-04T08:13:54;97863.59;;;4.29;80.71
70254;BME280;57649;42.968;1.608;2023-03-04T08:16:21;97868.19;;;4.38;80.28
70254;BME280;57649;42.968;1.608;2023-03-04T08:18:51;97865.75;;;4.35;80.66
70254;BME280;57649;42.968;1.608;2023-03-04T08:21:19;97859.50;;;4.36;80.55
70254;BME280;57649;42.968;1.608;2023-03-04T08:23:45;97867.72;;;4.44;80.14
70254;BME280;57649;42.968;1.608;2023-03-04T08:26:24;97872.41;;;4.41;80.87
70254;BME280;57649;42.968;1.608;2023-03-04T08:28:50;97869.75;;;4.52;79.51
70254;BME280;57649;42.968;1.608;2023-03-04T08:31:16;97872.06;;;4.57;79.38
70254;BME280;57649;42.968;1.608;2023-03-04T08:33:42;97869.31;;;4.58;79.57
70254;BME280;57649;42.968;1.608;2023-03-04T08:36:08;97860.41;;;4.71;75.07
70254;BME280;57649;42.968;1.608;2023-03-04T08:38:34;97859.28;;;4.85;73.72
70254;BME280;57649;42.968;1.608;2023-03-04T08:40:59;97865.44;;;4.85;72.20
70254;BME280;57649;42.968;1.608;2023-03-04T08:43:26;97859.28;;;4.85;72.85
70254;BME280;57649;42.968;1.608;2023-03-04T08:45:52;97872.66;;;4.94;74.23
70254;BME280;57649;42.968;1.608;2023-03-04T08:48:19;97864.47;;;4.97;74.01
70254;BME280;57649;42.968;1.608;2023-03-04T08:50:45;97870.50;;;4.99;76.03
70254;BME280;57649;42.968;1.608;2023-03-04T08:53:12;97860.16;;;4.96;75.81
70254;BME280;57649;42.968;1.608;2023-03-04T08:55:38;97863.50;;;5.21;75.39
70254;BME280;57649;42.968;1.608;2023-03-04T08:58:05;97866.38;;;5.18;73.97
70254;BME280;57649;42.968;1.608;2023-03-04T09:00:31;97859.63;;;5.14;71.74
70254;BME280;57649;42.968;1.608;2023-03-04T09:02:57;97859.00;;;5.21;70.80
70254;BME280;57649;42.968;1.608;2023-03-04T09:05:22;97860.47;;;5.26;70.93
70254;BME280;57649;42.968;1.608;2023-03-04T09:07:47;97857.09;;;5.35;69.43
70254;BME280;57649;42.968;1.608;2023-03-04T09:10:13;97858.50;;;5.39;67.86
70254;BME280;57649;42.968;1.608;2023-03-04T09:12:38;97847.13;;;5.48;69.16
70254;BME280;57649;42.968;1.608;2023-03-04T09:15:04;97850.75;;;5.47;68.24
70254;BME280;57649;42.968;1.608;2023-03-04T09:17:31;97840.91;;;5.27;67.70
70254;BME280;57649;42.968;1.608;2023-03-04T09:19:56;97849.25;;;5.22;68.44
70254;BME280;57649;42.968;1.608;2023-03-04T09:22:21;97854.19;;;5.27;68.32
70254;BME280;57649;42.968;1.608;2023-03-04T09:24:47;97855.81;;;5.50;69.03
70254;BME280;57649;42.968;1.608;2023-03-04T09:27:12;97843.22;;;5.64;67.28
70254;BME280;57649;42.968;1.608;2023-03-04T09:29:38;97847.09;;;5.59;66.51
70254;BME280;57649;42.968;1.608;2023-03-04T09:32:03;97844.81;;;5.55;67.18
70254;BME280;57649;42.968;1.608;2023-03-04T09:34:29;97852.16;;;5.63;66.74
70254;BME280;57649;42.968;1.608;2023-03-04T09:36:54;97851.84;;;5.45;67.04
70254;BME280;57649;42.968;1.608;2023-03-04T09:39:19;97847.13;;;5.48;68.52
70254;BME280;57649;42.968;1.608;2023-03-04T09:41:48;97845.13;;;5.73;68.01
70254;BME280;57649;42.968;1.608;2023-03-04T09:44:28;97843.16;;;5.75;68.47
70254;BME280;57649;42.968;1.608;2023-03-04T09:46:58;97847.56;;;5.65;67.75
70254;BME280;57649;42.968;1.608;2023-03-04T09:49:24;97849.47;;;5.74;67.13
70254;BME280;57649;42.968;1.608;2023-03-04T09:52:20;97847.53;;;5.76;66.79
70254;BME280;57649;42.968;1.608;2023-03-04T09:55:20;97839.25;;;5.58;67.54
70254;BME280;57649;42.968;1.608;2023-03-04T10:00:21;97856.03;;;5.58;67.51
70254;BME280;57649;42.968;1.608;2023-03-04T10:03:05;97865.97;;;5.45;67.02
70254;BME280;57649;42.968;1.608;2023-03-04T10:05:48;97849.75;;;5.59;67.04
70254;BME280;57649;42.968;1.608;2023-03-04T10:10:50;97847.88;;;5.71;66.00
70254;BME280;57649;42.968;1.608;2023-03-04T10:13:34;97852.09;;;5.42;66.22
70254;BME280;57649;42.968;1.608;2023-03-04T10:16:04;97849.63;;;5.61;67.32
70254;BME280;57649;42.968;1.608;2023-03-04T10:18:36;97849.31;;;5.43;65.99
70254;BME280;57649;42.968;1.608;2023-03-04T10:21:22;97842.19;;;5.44;66.35
70254;BME280;57649;42.968;1.608;2023-03-04T10:23:50;97847.63;;;5.42;66.37
70254;BME280;57649;42.968;1.608;2023-03-04T10:26:19;97842.81;;;5.36;66.32
70254;BME280;57649;42.968;1.608;2023-03-04T10:28:46;97843.69;;;5.69;66.92
70254;BME280;57649;42.968;1.608;2023-03-04T10:31:31;97832.50;;;5.86;66.70
70254;BME280;57649;42.968;1.608;2023-03-04T10:33:59;97829.13;;;5.84;65.72
70254;BME280;57649;42.968;1.608;2023-03-04T10:38:59;97832.47;;;5.65;65.88
70254;BME280;57649;42.968;1.608;2023-03-04T10:41:27;97838.41;;;5.57;66.56
70254;BME280;57649;42.968;1.608;2023-03-04T10:46:46;97832.28;;;5.78;65.43
70254;BME280;57649;42.968;1.608;2023-03-04T10:49:14;97818.06;;;5.79;65.61
70254;BME280;57649;42.968;1.608;2023-03-04T10:51:45;97840.22;;;5.89;64.69
70254;BME280;57649;42.968;1.608;2023-03-04T10:54:39;97823.41;;;6.00;64.69
70254;BME280;57649;42.968;1.608;2023-03-04T10:57:19;97802.94;;;6.12;64.35
70254;BME280;57649;42.968;1.608;2023-03-04T10:59:48;97807.75;;;6.80;62.69
70254;BME280;57649;42.968;1.608;2023-03-04T11:04:51;97800.00;;;7.07;62.39
70254;BME280;57649;42.968;1.608;2023-03-04T11:07:18;97798.28;;;7.06;61.60
70254;BME280;57649;42.968;1.608;2023-03-04T11:09:44;97796.34;;;7.08;61.34
70254;BME280;57649;42.968;1.608;2023-03-04T11:12:14;97794.41;;;7.30;61.37
70254;BME280;57649;42.968;1.608;2023-03-04T11:14:47;97798.56;;;7.03;62.00
70254;BME280;57649;42.968;1.608;2023-03-04T11:17:24;97788.78;;;7.04;60.41
70254;BME280;57649;42.968;1.608;2023-03-04T11:19:56;97794.72;;;6.86;61.38
70254;BME280;57649;42.968;1.608;2023-03-04T11:22:24;97791.81;;;6.99;61.94
70254;BME280;57649;42.968;1.608;2023-03-04T11:25:46;97781.38;;;7.17;59.90
70254;BME280;57649;42.968;1.608;2023-03-04T11:28:22;97779.03;;;7.53;59.96
70254;BME280;57649;42.968;1.608;2023-03-04T11:30:58;97782.50;;;7.24;60.47
70254;BME280;57649;42.968;1.608;2023-03-04T11:35:58;97776.34;;;7.72;59.62
70254;BME280;57649;42.968;1.608;2023-03-04T11:38:35;97764.00;;;7.52;59.26
70254;BME280;57649;42.968;1.608;2023-03-04T11:41:05;97764.44;;;7.67;59.46
70254;BME280;57649;42.968;1.608;2023-03-04T11:43:37;97756.25;;;7.98;58.20
70254;BME280;57649;42.968;1.608;2023-03-04T11:46:13;97756.84;;;7.82;57.96
70254;BME280;57649;42.968;1.608;2023-03-04T11:49:15;97754.06;;;7.64;57.95
70254;BME280;57649;42.968;1.608;2023-03-04T11:57:14;97744.16;;;8.23;58.08
70254;BME280;57649;42.968;1.608;2023-03-04T12:02:19;97736.91;;;7.96;57.49
70254;BME280;57649;42.968;1.608;2023-03-04T12:13:26;97721.06;;;8.41;56.67
70254;BME280;57649;42.968;1.608;2023-03-04T12:16:54;97729.56;;;8.17;56.71
70254;BME280;57649;42.968;1.608;2023-03-04T12:22:43;97706.59;;;8.72;55.68
70254;BME280;57649;42.968;1.608;2023-03-04T12:38:32;97672.94;;;8.43;55.86
70254;BME280;57649;42.968;1.608;2023-03-04T12:41:24;97675.47;;;8.62;55.82
70254;BME280;57649;42.968;1.608;2023-03-04T12:46:46;97663.53;;;8.66;55.57
70254;BME280;57649;42.968;1.608;2023-03-04T12:52:09;97646.97;;;8.63;56.48
70254;BME280;57649;42.968;1.608;2023-03-04T12:54:51;97648.09;;;8.60;56.46
70254;BME280;57649;42.968;1.608;2023-03-04T12:57:24;97647.66;;;8.65;56.07
70254;BME280;57649;42.968;1.608;2023-03-04T13:05:31;97631.22;;;8.42;57.15
70254;BME280;57649;42.968;1.608;2023-03-04T13:08:23;97635.94;;;8.76;56.63
70254;BME280;57649;42.968;1.608;2023-03-04T13:10:50;97622.88;;;8.73;56.57
70254;BME280;57649;42.968;1.608;2023-03-04T13:16:29;97632.06;;;8.33;57.72
70254;BME280;57649;42.968;1.608;2023-03-04T13:18:57;97616.13;;;8.23;57.28
70254;BME280;57649;42.968;1.608;2023-03-04T13:21:25;97618.13;;;8.48;57.31
70254;BME280;57649;42.968;1.608;2023-03-04T13:23:52;97618.34;;;8.55;56.81
70254;BME280;57649;42.968;1.608;2023-03-04T13:26:22;97603.28;;;8.82;56.81
70254;BME280;57649;42.968;1.608;2023-03-04T13:29:37;97613.13;;;8.81;56.70
70254;BME280;57649;42.968;1.608;2023-03-04T13:34:50;97610.34;;;8.55;57.37
70254;BME280;57649;42.968;1.608;2023-03-04T13:37:28;97605.47;;;8.51;56.85
70254;BME280;57649;42.968;1.608;2023-03-04T13:40:35;97596.44;;;8.79;56.67
70254;BME280;57649;42.968;1.608;2023-03-04T13:43:23;97587.25;;;8.64;57.14
70254;BME280;57649;42.968;1.608;2023-03-04T13:45:49;97584.91;;;8.61;56.92
70254;BME280;57649;42.968;1.608;2023-03-04T13:48:29;97586.59;;;8.80;56.50
70254;BME280;57649;42.968;1.608;2023-03-04T13:50:56;97580.41;;;8.79;55.23
70254;BME280;57649;42.968;1.608;2023-03-04T13:53:38;97589.69;;;8.75;55.72
70254;BME280;57649;42.968;1.608;2023-03-04T13:58:32;97573.78;;;9.01;54.81
70254;BME280;57649;42.968;1.608;2023-03-04T14:00:58;97572.63;;;8.86;55.18
70254;BME280;57649;42.968;1.608;2023-03-04T14:03:29;97569.50;;;9.09;55.64
70254;BME280;57649;42.968;1.608;2023-03-04T14:06:20;97572.97;;;9.27;54.62
70254;BME280;57649;42.968;1.608;2023-03-04T14:08:48;97576.38;;;9.37;54.43
70254;BME280;57649;42.968;1.608;2023-03-04T14:11:17;97563.41;;;9.24;54.44
70254;BME280;57649;42.968;1.608;2023-03-04T14:13:47;97575.56;;;9.19;53.87
70254;BME280;57649;42.968;1.608;2023-03-04T14:16:18;97565.66;;;9.11;54.25
70254;BME280;57649;42.968;1.608;2023-03-04T14:18:44;97569.41;;;9.00;54.20
70254;BME280;57649;42.968;1.608;2023-03-04T14:21:13;97574.59;;;9.02;54.17
70254;BME280;57649;42.968;1.608;2023-03-04T14:23:38;97566.44;;;8.85;54.58
70254;BME280;57649;42.968;1.608;2023-03-04T14:26:13;97564.97;;;9.27;54.37
70254;BME280;57649;42.968;1.608;2023-03-04T14:28:44;97563.50;;;9.59;53.20
70254;BME280;57649;42.968;1.608;2023-03-04T14:31:16;97566.94;;;9.25;53.19